sensor_id;sensor_type;location;lat;lon;timestamp;temperature;humidity
1137;DHT22;557;48.466;7.950;2023-03-31T00:00:24;12.50;99.90
1137;DHT22;557;48.466;7.950;2023-03-31T00:03:13;12.50;1.00
1137;DHT22;557;48.466;7.950;2023-03-31T00:06:07;12.50;99.90
1137;DHT22;557;48.466;7.950;2023-03-31T00:08:54;12.60;1.00
1137;DHT22;557;48.466;7.950;2023-03-31T00:11:47;12.60;99.90
1137;DHT22;557;48.466;7.950;2023-03-31T00:14:34;12.60;1.00
1137;DHT22;557;48.466;7.950;2023-03-31T00:17:22;12.50;14.70
1137;DHT22;557;48.466;7.950;2023-03-31T00:20:11;12.60;99.90
1137;DHT22;557;48.466;7.950;2023-03-31T00:22:59;12.60;1.00
1137;DHT22;557;48.466;7.950;2023-03-31T00:25:49;12.60;1.00
1137;DHT22;557;48.466;7.950;2023-03-31T00:28:36;12.80;99.90
1137;DHT22;557;48.466;7.950;2023-03-31T00:31:24;12.80;1.00
1137;DHT22;557;48.466;7.950;2023-03-31T00:34:12;12.90;1.00
1137;DHT22;557;48.466;7.950;2023-03-31T00:37:01;13.00;99.90
1137;DHT22;557;48.466;7.950;2023-03-31T00:39:48;13.10;99.90
1137;DHT22;557;48.466;7.950;2023-03-31T00:42:39;13.30;99.90
1137;DHT22;557;48.466;7.950;2023-03-31T00:45:28;13.40;99.90
1137;DHT22;557;48.466;7.950;2023-03-31T00:48:17;13.30;1.00
1137;DHT22;557;48.466;7.950;2023-03-31T00:51:06;13.10;99.90
1137;DHT22;557;48.466;7.950;2023-03-31T00:53:57;12.90;1.00
1137;DHT22;557;48.466;7.950;2023-03-31T00:56:46;12.60;99.90
1137;DHT22;557;48.466;7.950;2023-03-31T00:59:37;12.10;1.00
1137;DHT22;557;48.466;7.950;2023-03-31T01:02:27;11.80;1.00
1137;DHT22;557;48.466;7.950;2023-03-31T01:05:14;11.70;1.00
1137;DHT22;557;48.466;7.950;2023-03-31T01:08:03;11.50;75.60
1137;DHT22;557;48.466;7.950;2023-03-31T01:10:55;11.40;52.00
1137;DHT22;557;48.466;7.950;2023-03-31T01:13:42;11.40;96.90
1137;DHT22;557;48.466;7.950;2023-03-31T01:16:31;11.30;99.90
1137;DHT22;557;48.466;7.950;2023-03-31T01:19:31;11.20;99.90
1137;DHT22;557;48.466;7.950;2023-03-31T01:22:57;11.20;99.90
1137;DHT22;557;48.466;7.950;2023-03-31T01:29:25;11.00;99.90
1137;DHT22;557;48.466;7.950;2023-03-31T01:32:37;11.00;99.90
1137;DHT22;557;48.466;7.950;2023-03-31T01:36:10;11.00;99.90
1137;DHT22;557;48.466;7.950;2023-03-31T01:42:29;10.80;99.90
1137;DHT22;557;48.466;7.950;2023-03-31T01:45:27;10.80;99.90
1137;DHT22;557;48.466;7.950;2023-03-31T01:48:21;10.80;99.90
1137;DHT22;557;48.466;7.950;2023-03-31T01:51:17;10.90;99.90
1137;DHT22;557;48.466;7.950;2023-03-31T01:54:14;10.90;99.90
1137;DHT22;557;48.466;7.950;2023-03-31T01:57:11;11.00;99.90
1137;DHT22;557;48.466;7.950;2023-03-31T02:00:04;11.00;99.90
1137;DHT22;557;48.466;7.950;2023-03-31T02:02:56;11.00;99.90
1137;DHT22;557;48.466;7.950;2023-03-31T02:05:47;11.00;99.90
1137;DHT22;557;48.466;7.950;2023-03-31T02:08:39;11.00;99.90
1137;DHT22;557;48.466;7.950;2023-03-31T02:11:28;10.90;99.90
1137;DHT22;557;48.466;7.950;2023-03-31T02:14:19;11.00;99.90
1137;DHT22;557;48.466;7.950;2023-03-31T02:17:14;11.00;99.90
1137;DHT22;557;48.466;7.950;2023-03-31T02:20:06;11.10;99.90
1137;DHT22;557;48.466;7.950;2023-03-31T02:22:57;11.10;93.90
1137;DHT22;557;48.466;7.950;2023-03-31T02:25:48;11.20;79.70
1137;DHT22;557;48.466;7.950;2023-03-31T02:28:36;11.20;45.50
1137;DHT22;557;48.466;7.950;2023-03-31T02:31:27;11.30;25.90
1137;DHT22;557;48.466;7.950;2023-03-31T02:34:19;11.40;25.00
1137;DHT22;557;48.466;7.950;2023-03-31T02:37:06;11.30;93.90
1137;DHT22;557;48.466;7.950;2023-03-31T02:39:56;11.20;99.90
1137;DHT22;557;48.466;7.950;2023-03-31T02:42:44;11.10;99.90
1137;DHT22;557;48.466;7.950;2023-03-31T02:45:40;11.10;99.90
1137;DHT22;557;48.466;7.950;2023-03-31T02:48:30;11.10;99.90
1137;DHT22;557;48.466;7.950;2023-03-31T02:51:54;11.00;99.90
1137;DHT22;557;48.466;7.950;2023-03-31T02:58:28;10.90;99.90
1137;DHT22;557;48.466;7.950;2023-03-31T03:01:48;10.80;99.90
1137;DHT22;557;48.466;7.950;2023-03-31T03:04:57;10.80;99.90
1137;DHT22;557;48.466;7.950;2023-03-31T03:07:57;10.80;99.90
1137;DHT22;557;48.466;7.950;2023-03-31T03:10:54;10.70;99.90
1137;DHT22;557;48.466;7.950;2023-03-31T03:13:48;10.70;99.90
1137;DHT22;557;48.466;7.950;2023-03-31T03:16:39;10.70;99.90
1137;DHT22;557;48.466;7.950;2023-03-31T03:19:27;10.70;99.90
1137;DHT22;557;48.466;7.950;2023-03-31T03:22:15;10.60;99.90
1137;DHT22;557;48.466;7.950;2023-03-31T03:25:04;10.70;99.90
1137;DHT22;557;48.466;7.950;2023-03-31T03:27:52;10.90;99.90
1137;DHT22;557;48.466;7.950;2023-03-31T03:30:39;11.00;99.90
1137;DHT22;557;48.466;7.950;2023-03-31T03:33:26;11.00;92.70
1137;DHT22;557;48.466;7.950;2023-03-31T03:36:14;11.10;80.40
1137;DHT22;557;48.466;7.950;2023-03-31T03:39:01;11.20;65.60
1137;DHT22;557;48.466;7.950;2023-03-31T03:41:51;11.30;34.70
1137;DHT22;557;48.466;7.950;2023-03-31T03:44:38;11.40;10.00
1137;DHT22;557;48.466;7.950;2023-03-31T03:47:25;11.50;1.00
1137;DHT22;557;48.466;7.950;2023-03-31T03:50:13;11.50;1.00
1137;DHT22;557;48.466;7.950;2023-03-31T03:53:00;11.50;1.00
1137;DHT22;557;48.466;7.950;2023-03-31T03:55:47;11.60;1.00
1137;DHT22;557;48.466;7.950;2023-03-31T03:58:36;11.60;1.00
1137;DHT22;557;48.466;7.950;2023-03-31T04:01:23;11.50;2.00
1137;DHT22;557;48.466;7.950;2023-03-31T04:04:11;11.50;20.60
1137;DHT22;557;48.466;7.950;2023-03-31T04:06:58;11.50;29.00
1137;DHT22;557;48.466;7.950;2023-03-31T04:09:45;11.40;49.60
1137;DHT22;557;48.466;7.950;2023-03-31T04:12:33;11.30;99.90
1137;DHT22;557;48.466;7.950;2023-03-31T04:15:22;11.20;99.90
1137;DHT22;557;48.466;7.950;2023-03-31T04:18:09;11.10;99.90
1137;DHT22;557;48.466;7.950;2023-03-31T04:21:03;11.10;99.90
1137;DHT22;557;48.466;7.950;2023-03-31T04:23:52;11.10;99.90
1137;DHT22;557;48.466;7.950;2023-03-31T04:26:43;11.10;99.90
1137;DHT22;557;48.466;7.950;2023-03-31T04:29:30;11.10;99.90
1137;DHT22;557;48.466;7.950;2023-03-31T04:32:19;11.10;99.90
1137;DHT22;557;48.466;7.950;2023-03-31T04:35:08;11.10;99.90
1137;DHT22;557;48.466;7.950;2023-03-31T04:37:55;11.10;99.90
1137;DHT22;557;48.466;7.950;2023-03-31T04:40:45;11.10;99.90
1137;DHT22;557;48.466;7.950;2023-03-31T04:43:33;11.10;99.90
1137;DHT22;557;48.466;7.950;2023-03-31T04:46:21;11.10;99.90
1137;DHT22;557;48.466;7.950;2023-03-31T04:49:09;11.10;99.90
1137;DHT22;557;48.466;7.950;2023-03-31T04:51:57;11.20;99.90
1137;DHT22;557;48.466;7.950;2023-03-31T04:54:44;11.10;99.90
1137;DHT22;557;48.466;7.950;2023-03-31T04:57:31;11.00;99.90
1137;DHT22;557;48.466;7.950;2023-03-31T05:00:19;10.90;99.90
1137;DHT22;557;48.466;7.950;2023-03-31T05:03:07;10.80;99.90
1137;DHT22;557;48.466;7.950;2023-03-31T05:05:56;10.70;99.90
1137;DHT22;557;48.466;7.950;2023-03-31T05:08:43;10.60;99.90
1137;DHT22;557;48.466;7.950;2023-03-31T05:11:31;10.60;99.90
1137;DHT22;557;48.466;7.950;2023-03-31T05:14:18;10.60;99.90
1137;DHT22;557;48.466;7.950;2023-03-31T05:17:06;10.50;99.90
1137;DHT22;557;48.466;7.950;2023-03-31T05:19:53;10.60;99.90
1137;DHT22;557;48.466;7.950;2023-03-31T05:22:42;10.60;99.90
1137;DHT22;557;48.466;7.950;2023-03-31T05:25:29;10.60;99.90
1137;DHT22;557;48.466;7.950;2023-03-31T05:28:18;10.60;99.90
1137;DHT22;557;48.466;7.950;2023-03-31T05:31:06;10.60;99.90
1137;DHT22;557;48.466;7.950;2023-03-31T05:33:53;10.50;99.90
1137;DHT22;557;48.466;7.950;2023-03-31T05:36:41;10.40;99.90
1137;DHT22;557;48.466;7.950;2023-03-31T05:39:31;10.40;99.90
1137;DHT22;557;48.466;7.950;2023-03-31T05:42:20;10.40;99.90
1137;DHT22;557;48.466;7.950;2023-03-31T05:45:08;10.60;99.90
1137;DHT22;557;48.466;7.950;2023-03-31T05:47:55;10.60;99.90
1137;DHT22;557;48.466;7.950;2023-03-31T05:50:42;10.50;99.90
1137;DHT22;557;48.466;7.950;2023-03-31T05:53:30;10.60;99.90
1137;DHT22;557;48.466;7.950;2023-03-31T05:56:18;10.70;99.90
1137;DHT22;557;48.466;7.950;2023-03-31T05:59:07;10.70;99.90
1137;DHT22;557;48.466;7.950;2023-03-31T06:01:54;10.70;99.90
1137;DHT22;557;48.466;7.950;2023-03-31T06:04:41;10.80;99.90
1137;DHT22;557;48.466;7.950;2023-03-31T06:07:28;10.80;99.90
1137;DHT22;557;48.466;7.950;2023-03-31T06:10:16;10.90;99.90
1137;DHT22;557;48.466;7.950;2023-03-31T06:13:05;10.90;99.90
1137;DHT22;557;48.466;7.950;2023-03-31T06:15:53;10.80;99.90
1137;DHT22;557;48.466;7.950;2023-03-31T06:18:41;10.80;99.90
1137;DHT22;557;48.466;7.950;2023-03-31T06:21:28;10.90;99.90
1137;DHT22;557;48.466;7.950;2023-03-31T06:24:15;10.90;99.90
1137;DHT22;557;48.466;7.950;2023-03-31T06:27:03;10.90;99.90
1137;DHT22;557;48.466;7.950;2023-03-31T06:29:53;10.90;99.90
1137;DHT22;557;48.466;7.950;2023-03-31T06:32:41;10.90;99.90
1137;DHT22;557;48.466;7.950;2023-03-31T06:35:28;10.80;99.90
1137;DHT22;557;48.466;7.950;2023-03-31T06:38:15;10.90;99.90
1137;DHT22;557;48.466;7.950;2023-03-31T06:41:03;10.80;99.90
1137;DHT22;557;48.466;7.950;2023-03-31T06:43:50;10.80;99.90
1137;DHT22;557;48.466;7.950;2023-03-31T06:46:39;10.90;99.90
1137;DHT22;557;48.466;7.950;2023-03-31T06:49:26;10.90;99.90
1137;DHT22;557;48.466;7.950;2023-03-31T06:52:14;10.90;99.90
1137;DHT22;557;48.466;7.950;2023-03-31T06:55:01;10.90;99.90
1137;DHT22;557;48.466;7.950;2023-03-31T06:57:48;11.10;99.90
1137;DHT22;557;48.466;7.950;2023-03-31T07:00:36;11.00;99.90
1137;DHT22;557;48.466;7.950;2023-03-31T07:03:24;11.00;99.90
1137;DHT22;557;48.466;7.950;2023-03-31T07:06:14;11.00;99.90
1137;DHT22;557;48.466;7.950;2023-03-31T07:09:01;11.10;99.90
1137;DHT22;557;48.466;7.950;2023-03-31T07:11:49;11.10;99.90
1137;DHT22;557;48.466;7.950;2023-03-31T07:14:36;11.20;99.90
1137;DHT22;557;48.466;7.950;2023-03-31T07:17:24;11.20;99.90
1137;DHT22;557;48.466;7.950;2023-03-31T07:20:14;11.30;99.90
1137;DHT22;557;48.466;7.950;2023-03-31T07:23:03;11.40;99.90
1137;DHT22;557;48.466;7.950;2023-03-31T07:25:51;11.50;93.00
1137;DHT22;557;48.466;7.950;2023-03-31T07:28:38;11.60;97.40
1137;DHT22;557;48.466;7.950;2023-03-31T07:31:26;11.60;59.70
1137;DHT22;557;48.466;7.950;2023-03-31T07:34:13;11.70;32.00
1137;DHT22;557;48.466;7.950;2023-03-31T07:37:02;11.80;22.50
1137;DHT22;557;48.466;7.950;2023-03-31T07:39:50;11.90;1.00
1137;DHT22;557;48.466;7.950;2023-03-31T07:42:38;12.00;1.00
1137;DHT22;557;48.466;7.950;2023-03-31T07:45:26;12.10;1.00
1137;DHT22;557;48.466;7.950;2023-03-31T07:48:13;12.20;1.00
1137;DHT22;557;48.466;7.950;2023-03-31T07:51:00;12.40;99.90
1137;DHT22;557;48.466;7.950;2023-03-31T07:53:50;12.40;99.90
1137;DHT22;557;48.466;7.950;2023-03-31T07:56:38;12.60;99.90
1137;DHT22;557;48.466;7.950;2023-03-31T07:59:25;12.80;99.90
1137;DHT22;557;48.466;7.950;2023-03-31T08:02:14;12.90;99.90
1137;DHT22;557;48.466;7.950;2023-03-31T08:05:02;12.90;99.90
1137;DHT22;557;48.466;7.950;2023-03-31T08:07:50;13.00;99.90
1137;DHT22;557;48.466;7.950;2023-03-31T08:10:39;13.10;99.90
1137;DHT22;557;48.466;7.950;2023-03-31T08:13:26;13.20;99.90
1137;DHT22;557;48.466;7.950;2023-03-31T08:16:13;13.20;1.00
1137;DHT22;557;48.466;7.950;2023-03-31T08:19:01;13.30;99.90
1137;DHT22;557;48.466;7.950;2023-03-31T08:21:48;13.30;1.00
1137;DHT22;557;48.466;7.950;2023-03-31T08:24:36;13.30;93.70
1137;DHT22;557;48.466;7.950;2023-03-31T08:27:25;13.30;99.90
1137;DHT22;557;48.466;7.950;2023-03-31T08:30:13;13.30;1.00
1137;DHT22;557;48.466;7.950;2023-03-31T08:33:00;13.30;1.00
1137;DHT22;557;48.466;7.950;2023-03-31T08:35:48;13.40;32.30
1137;DHT22;557;48.466;7.950;2023-03-31T08:38:35;13.50;1.00
1137;DHT22;557;48.466;7.950;2023-03-31T08:41:41;13.50;9.00
1137;DHT22;557;48.466;7.950;2023-03-31T08:44:38;13.70;99.90
1137;DHT22;557;48.466;7.950;2023-03-31T08:47:29;14.00;1.00
1137;DHT22;557;48.466;7.950;2023-03-31T08:50:20;14.40;1.00
1137;DHT22;557;48.466;7.950;2023-03-31T08:53:19;14.60;1.00
1137;DHT22;557;48.466;7.950;2023-03-31T08:56:14;14.90;99.90
1137;DHT22;557;48.466;7.950;2023-03-31T08:59:02;15.00;1.00
1137;DHT22;557;48.466;7.950;2023-03-31T09:01:58;15.10;99.90
1137;DHT22;557;48.466;7.950;2023-03-31T09:05:09;14.90;99.90
1137;DHT22;557;48.466;7.950;2023-03-31T09:08:05;14.70;99.90
1137;DHT22;557;48.466;7.950;2023-03-31T09:11:03;14.60;99.90
1137;DHT22;557;48.466;7.950;2023-03-31T09:14:09;14.50;99.90
1137;DHT22;557;48.466;7.950;2023-03-31T09:17:11;14.40;99.90
1137;DHT22;557;48.466;7.950;2023-03-31T09:20:02;14.50;99.90
1137;DHT22;557;48.466;7.950;2023-03-31T09:22:59;15.00;1.00
1137;DHT22;557;48.466;7.950;2023-03-31T09:25:48;15.30;99.90
1137;DHT22;557;48.466;7.950;2023-03-31T09:28:38;15.20;99.90
1137;DHT22;557;48.466;7.950;2023-03-31T09:31:26;15.10;99.90
1137;DHT22;557;48.466;7.950;2023-03-31T09:34:19;15.00;99.90
1137;DHT22;557;48.466;7.950;2023-03-31T09:37:09;15.10;99.90
1137;DHT22;557;48.466;7.950;2023-03-31T09:39:58;15.20;99.90
1137;DHT22;557;48.466;7.950;2023-03-31T09:42:47;15.30;99.90
1137;DHT22;557;48.466;7.950;2023-03-31T09:45:36;15.40;99.90
1137;DHT22;557;48.466;7.950;2023-03-31T09:48:26;15.50;99.90
1137;DHT22;557;48.466;7.950;2023-03-31T09:51:19;15.40;99.90
1137;DHT22;557;48.466;7.950;2023-03-31T09:54:14;15.50;99.90
1137;DHT22;557;48.466;7.950;2023-03-31T09:57:14;15.40;99.90
1137;DHT22;557;48.466;7.950;2023-03-31T10:00:12;15.30;99.90
1137;DHT22;557;48.466;7.950;2023-03-31T10:03:02;15.20;99.90
1137;DHT22;557;48.466;7.950;2023-03-31T10:05:54;15.10;99.90
1137;DHT22;557;48.466;7.950;2023-03-31T10:08:48;14.90;99.90
1137;DHT22;557;48.466;7.950;2023-03-31T10:11:38;14.70;99.90
1137;DHT22;557;48.466;7.950;2023-03-31T10:14:32;13.80;1.00
1137;DHT22;557;48.466;7.950;2023-03-31T10:17:22;13.30;1.00
1137;DHT22;557;48.466;7.950;2023-03-31T10:20:20;13.10;99.90
1137;DHT22;557;48.466;7.950;2023-03-31T10:23:15;13.00;1.00
1137;DHT22;557;48.466;7.950;2023-03-31T10:26:04;13.00;99.90
1137;DHT22;557;48.466;7.950;2023-03-31T10:28:52;12.00;1.00
1137;DHT22;557;48.466;7.950;2023-03-31T10:31:40;10.40;1.00
1137;DHT22;557;48.466;7.950;2023-03-31T10:34:29;9.50;1.60
1137;DHT22;557;48.466;7.950;2023-03-31T10:37:20;9.20;99.90
1137;DHT22;557;48.466;7.950;2023-03-31T10:40:13;9.10;99.90
1137;DHT22;557;48.466;7.950;2023-03-31T10:43:11;9.20;99.90
1137;DHT22;557;48.466;7.950;2023-03-31T10:46:00;9.20;99.90
1137;DHT22;557;48.466;7.950;2023-03-31T10:48:50;9.30;99.90
1137;DHT22;557;48.466;7.950;2023-03-31T10:51:48;9.20;99.90
1137;DHT22;557;48.466;7.950;2023-03-31T10:54:35;9.20;99.90
1137;DHT22;557;48.466;7.950;2023-03-31T10:57:30;9.10;99.90
1137;DHT22;557;48.466;7.950;2023-03-31T11:00:28;9.10;99.90
1137;DHT22;557;48.466;7.950;2023-03-31T11:06:43;9.20;99.90
1137;DHT22;557;48.466;7.950;2023-03-31T11:09:43;9.40;99.90
1137;DHT22;557;48.466;7.950;2023-03-31T11:12:38;9.60;99.90
1137;DHT22;557;48.466;7.950;2023-03-31T11:15:36;9.70;99.90
1137;DHT22;557;48.466;7.950;2023-03-31T11:18:37;9.80;99.90
1137;DHT22;557;48.466;7.950;2023-03-31T11:21:31;9.90;99.90
1137;DHT22;557;48.466;7.950;2023-03-31T11:24:33;10.00;99.90
1137;DHT22;557;48.466;7.950;2023-03-31T11:27:35;10.20;92.80
1137;DHT22;557;48.466;7.950;2023-03-31T11:30:30;10.60;90.40
1137;DHT22;557;48.466;7.950;2023-03-31T11:33:46;11.20;29.10
1137;DHT22;557;48.466;7.950;2023-03-31T11:37:00;11.80;1.00
1137;DHT22;557;48.466;7.950;2023-03-31T11:40:03;11.90;1.00
1137;DHT22;557;48.466;7.950;2023-03-31T11:42:58;11.60;1.00
1137;DHT22;557;48.466;7.950;2023-03-31T11:45:52;11.60;1.00
1137;DHT22;557;48.466;7.950;2023-03-31T11:48:45;11.50;1.00
1137;DHT22;557;48.466;7.950;2023-03-31T11:51:40;11.90;1.00
1137;DHT22;557;48.466;7.950;2023-03-31T11:54:32;12.70;98.80
1137;DHT22;557;48.466;7.950;2023-03-31T11:57:24;13.10;99.90
1137;DHT22;557;48.466;7.950;2023-03-31T12:00:17;13.40;99.90
1137;DHT22;557;48.466;7.950;2023-03-31T12:03:10;13.60;99.90
1137;DHT22;557;48.466;7.950;2023-03-31T12:06:02;12.80;99.90
1137;DHT22;557;48.466;7.950;2023-03-31T12:09:04;12.50;99.90
1137;DHT22;557;48.466;7.950;2023-03-31T12:11:58;12.50;1.00
1137;DHT22;557;48.466;7.950;2023-03-31T12:14:52;12.60;99.90
1137;DHT22;557;48.466;7.950;2023-03-31T12:17:42;12.60;1.00
1137;DHT22;557;48.466;7.950;2023-03-31T12:20:34;12.50;99.90
1137;DHT22;557;48.466;7.950;2023-03-31T12:23:26;12.30;99.90
1137;DHT22;557;48.466;7.950;2023-03-31T12:26:27;12.10;99.90
1137;DHT22;557;48.466;7.950;2023-03-31T12:29:26;12.00;99.90
1137;DHT22;557;48.466;7.950;2023-03-31T12:32:15;11.90;1.00
1137;DHT22;557;48.466;7.950;2023-03-31T12:35:07;11.80;1.00
1137;DHT22;557;48.466;7.950;2023-03-31T12:38:24;11.80;1.00
1137;DHT22;557;48.466;7.950;2023-03-31T12:41:20;11.70;1.00
1137;DHT22;557;48.466;7.950;2023-03-31T12:44:33;11.50;1.00
1137;DHT22;557;48.466;7.950;2023-03-31T12:47:33;11.40;49.10
1137;DHT22;557;48.466;7.950;2023-03-31T12:50:40;10.90;99.90
1137;DHT22;557;48.466;7.950;2023-03-31T12:53:37;10.10;99.90
1137;DHT22;557;48.466;7.950;2023-03-31T12:57:07;9.80;99.90
1137;DHT22;557;48.466;7.950;2023-03-31T13:00:19;9.40;99.90
1137;DHT22;557;48.466;7.950;2023-03-31T13:06:52;9.10;99.90
1137;DHT22;557;48.466;7.950;2023-03-31T13:09:44;9.20;99.90
1137;DHT22;557;48.466;7.950;2023-03-31T13:12:31;10.40;99.90
1137;DHT22;557;48.466;7.950;2023-03-31T13:15:22;12.20;36.90
1137;DHT22;557;48.466;7.950;2023-03-31T13:18:17;13.40;1.00
1137;DHT22;557;48.466;7.950;2023-03-31T13:21:06;13.30;1.00
1137;DHT22;557;48.466;7.950;2023-03-31T13:23:58;12.20;1.00
1137;DHT22;557;48.466;7.950;2023-03-31T13:26:48;11.20;1.00
1137;DHT22;557;48.466;7.950;2023-03-31T13:29:40;10.70;99.90
1137;DHT22;557;48.466;7.950;2023-03-31T13:32:28;10.40;99.90
1137;DHT22;557;48.466;7.950;2023-03-31T13:35:18;10.10;99.90
1137;DHT22;557;48.466;7.950;2023-03-31T13:38:09;10.00;99.90
1137;DHT22;557;48.466;7.950;2023-03-31T13:41:08;10.10;99.90
1137;DHT22;557;48.466;7.950;2023-03-31T13:44:23;10.90;99.90
1137;DHT22;557;48.466;7.950;2023-03-31T13:47:33;12.30;78.90
1137;DHT22;557;48.466;7.950;2023-03-31T13:50:41;13.50;1.00
1137;DHT22;557;48.466;7.950;2023-03-31T13:53:55;14.70;1.00
1137;DHT22;557;48.466;7.950;2023-03-31T13:56:51;15.00;99.90
1137;DHT22;557;48.466;7.950;2023-03-31T14:00:01;14.90;99.90
1137;DHT22;557;48.466;7.950;2023-03-31T14:03:22;14.80;99.90
1137;DHT22;557;48.466;7.950;2023-03-31T14:06:19;14.90;99.90
1137;DHT22;557;48.466;7.950;2023-03-31T14:09:12;14.90;99.90
1137;DHT22;557;48.466;7.950;2023-03-31T14:12:18;14.20;99.90
1137;DHT22;557;48.466;7.950;2023-03-31T14:15:17;13.30;1.00
1137;DHT22;557;48.466;7.950;2023-03-31T14:18:06;12.80;99.90
1137;DHT22;557;48.466;7.950;2023-03-31T14:21:14;12.60;99.90
1137;DHT22;557;48.466;7.950;2023-03-31T14:24:14;12.50;22.40
1137;DHT22;557;48.466;7.950;2023-03-31T14:27:13;12.50;99.90
1137;DHT22;557;48.466;7.950;2023-03-31T14:30:11;12.40;99.90
1137;DHT22;557;48.466;7.950;2023-03-31T14:33:12;12.40;99.90
1137;DHT22;557;48.466;7.950;2023-03-31T14:36:09;12.30;99.90
1137;DHT22;557;48.466;7.950;2023-03-31T14:39:02;12.20;1.00
1137;DHT22;557;48.466;7.950;2023-03-31T14:41:51;12.20;56.90
1137;DHT22;557;48.466;7.950;2023-03-31T14:44:40;12.10;99.90
1137;DHT22;557;48.466;7.950;2023-03-31T14:47:31;12.10;99.90
1137;DHT22;557;48.466;7.950;2023-03-31T14:50:18;12.10;2.50
1137;DHT22;557;48.466;7.950;2023-03-31T14:53:13;12.10;1.00
1137;DHT22;557;48.466;7.950;2023-03-31T14:56:03;12.00;1.00
1137;DHT22;557;48.466;7.950;2023-03-31T14:58:53;12.10;99.90
1137;DHT22;557;48.466;7.950;2023-03-31T15:01:40;12.10;37.00
1137;DHT22;557;48.466;7.950;2023-03-31T15:04:31;12.10;99.90
1137;DHT22;557;48.466;7.950;2023-03-31T15:07:22;12.10;1.00
1137;DHT22;557;48.466;7.950;2023-03-31T15:13:07;12.10;99.90
1137;DHT22;557;48.466;7.950;2023-03-31T15:15:55;12.00;99.90
1137;DHT22;557;48.466;7.950;2023-03-31T15:18:43;12.00;1.00
1137;DHT22;557;48.466;7.950;2023-03-31T15:21:36;12.00;1.00
1137;DHT22;557;48.466;7.950;2023-03-31T15:24:24;11.90;99.90
1137;DHT22;557;48.466;7.950;2023-03-31T15:27:15;11.90;99.90
1137;DHT22;557;48.466;7.950;2023-03-31T15:30:07;11.80;99.90
1137;DHT22;557;48.466;7.950;2023-03-31T15:32:55;10.00;1.00
1137;DHT22;557;48.466;7.950;2023-03-31T15:35:42;8.20;99.90
1137;DHT22;557;48.466;7.950;2023-03-31T15:38:31;7.40;99.90
1137;DHT22;557;48.466;7.950;2023-03-31T15:41:19;7.40;99.90
1137;DHT22;557;48.466;7.950;2023-03-31T15:44:27;7.40;99.90
1137;DHT22;557;48.466;7.950;2023-03-31T15:47:19;7.30;99.90
1137;DHT22;557;48.466;7.950;2023-03-31T15:50:11;7.50;99.90
1137;DHT22;557;48.466;7.950;2023-03-31T15:53:00;7.70;99.90
1137;DHT22;557;48.466;7.950;2023-03-31T15:55:53;7.90;99.90
1137;DHT22;557;48.466;7.950;2023-03-31T15:58:53;8.10;99.90
1137;DHT22;557;48.466;7.950;2023-03-31T16:01:43;8.20;99.90
1137;DHT22;557;48.466;7.950;2023-03-31T16:04:32;8.50;99.90
1137;DHT22;557;48.466;7.950;2023-03-31T16:07:21;8.70;99.90
1137;DHT22;557;48.466;7.950;2023-03-31T16:10:16;8.90;99.90
1137;DHT22;557;48.466;7.950;2023-03-31T16:13:07;9.10;99.90
1137;DHT22;557;48.466;7.950;2023-03-31T16:15:56;9.30;99.90
1137;DHT22;557;48.466;7.950;2023-03-31T16:18:47;9.50;99.90
1137;DHT22;557;48.466;7.950;2023-03-31T16:21:38;9.60;99.90
1137;DHT22;557;48.466;7.950;2023-03-31T16:24:29;9.70;99.90
1137;DHT22;557;48.466;7.950;2023-03-31T16:27:17;9.80;99.90
1137;DHT22;557;48.466;7.950;2023-03-31T16:30:10;9.80;99.90
1137;DHT22;557;48.466;7.950;2023-03-31T16:32:59;9.80;99.90
1137;DHT22;557;48.466;7.950;2023-03-31T16:35:48;9.90;99.90
1137;DHT22;557;48.466;7.950;2023-03-31T16:38:36;9.90;99.90
1137;DHT22;557;48.466;7.950;2023-03-31T16:41:27;10.00;99.90
1137;DHT22;557;48.466;7.950;2023-03-31T16:44:14;10.00;99.90
1137;DHT22;557;48.466;7.950;2023-03-31T16:50:54;10.10;99.90
1137;DHT22;557;48.466;7.950;2023-03-31T16:53:43;10.20;99.90
1137;DHT22;557;48.466;7.950;2023-03-31T16:56:30;10.30;99.90
1137;DHT22;557;48.466;7.950;2023-03-31T16:59:17;10.20;99.90
1137;DHT22;557;48.466;7.950;2023-03-31T17:02:05;10.20;99.90
1137;DHT22;557;48.466;7.950;2023-03-31T17:04:52;10.30;99.90
1137;DHT22;557;48.466;7.950;2023-03-31T17:07:41;10.30;99.90
1137;DHT22;557;48.466;7.950;2023-03-31T17:10:29;10.20;99.90
1137;DHT22;557;48.466;7.950;2023-03-31T17:13:18;10.40;99.90
1137;DHT22;557;48.466;7.950;2023-03-31T17:16:06;10.40;99.90
1137;DHT22;557;48.466;7.950;2023-03-31T17:18:54;10.50;99.90
1137;DHT22;557;48.466;7.950;2023-03-31T17:21:41;10.60;99.90
1137;DHT22;557;48.466;7.950;2023-03-31T17:24:30;10.70;99.90
1137;DHT22;557;48.466;7.950;2023-03-31T17:27:17;10.70;99.90
1137;DHT22;557;48.466;7.950;2023-03-31T17:30:05;10.60;99.90
1137;DHT22;557;48.466;7.950;2023-03-31T17:32:53;10.60;99.90
1137;DHT22;557;48.466;7.950;2023-03-31T17:35:41;10.50;99.90
1137;DHT22;557;48.466;7.950;2023-03-31T17:38:28;10.50;99.90
1137;DHT22;557;48.466;7.950;2023-03-31T17:41:17;10.60;90.60
1137;DHT22;557;48.466;7.950;2023-03-31T17:44:04;10.60;59.70
1137;DHT22;557;48.466;7.950;2023-03-31T17:46:53;10.60;87.60
1137;DHT22;557;48.466;7.950;2023-03-31T17:49:41;10.50;99.90
1137;DHT22;557;48.466;7.950;2023-03-31T17:52:28;10.50;99.90
1137;DHT22;557;48.466;7.950;2023-03-31T17:55:16;10.40;99.90
1137;DHT22;557;48.466;7.950;2023-03-31T17:58:05;10.40;99.90
1137;DHT22;557;48.466;7.950;2023-03-31T18:00:53;10.40;99.90
1137;DHT22;557;48.466;7.950;2023-03-31T18:03:40;10.30;99.90
1137;DHT22;557;48.466;7.950;2023-03-31T18:06:29;10.30;99.90
1137;DHT22;557;48.466;7.950;2023-03-31T18:09:17;10.30;99.90
1137;DHT22;557;48.466;7.950;2023-03-31T18:12:05;10.40;54.50
1137;DHT22;557;48.466;7.950;2023-03-31T18:14:54;10.40;53.80
1137;DHT22;557;48.466;7.950;2023-03-31T18:17:41;10.50;1.00
1137;DHT22;557;48.466;7.950;2023-03-31T18:20:29;10.60;1.00
1137;DHT22;557;48.466;7.950;2023-03-31T18:23:17;10.50;7.40
1137;DHT22;557;48.466;7.950;2023-03-31T18:26:05;10.50;1.00
1137;DHT22;557;48.466;7.950;2023-03-31T18:28:53;10.40;3.50
1137;DHT22;557;48.466;7.950;2023-03-31T18:31:41;10.40;1.00
1137;DHT22;557;48.466;7.950;2023-03-31T18:34:29;10.40;2.20
1137;DHT22;557;48.466;7.950;2023-03-31T18:37:18;10.40;1.00
1137;DHT22;557;48.466;7.950;2023-03-31T18:40:07;10.40;1.00
1137;DHT22;557;48.466;7.950;2023-03-31T18:42:54;10.50;1.00
1137;DHT22;557;48.466;7.950;2023-03-31T18:45:42;10.40;1.00
1137;DHT22;557;48.466;7.950;2023-03-31T18:48:31;10.50;1.00
1137;DHT22;557;48.466;7.950;2023-03-31T18:51:19;10.50;1.00
1137;DHT22;557;48.466;7.950;2023-03-31T18:54:07;10.60;1.00
1137;DHT22;557;48.466;7.950;2023-03-31T18:56:54;10.60;1.00
1137;DHT22;557;48.466;7.950;2023-03-31T18:59:42;10.60;1.00
1137;DHT22;557;48.466;7.950;2023-03-31T19:02:29;10.60;1.00
1137;DHT22;557;48.466;7.950;2023-03-31T19:05:18;10.60;1.00
1137;DHT22;557;48.466;7.950;2023-03-31T19:08:05;10.60;1.00
1137;DHT22;557;48.466;7.950;2023-03-31T19:11:02;10.70;1.00
1137;DHT22;557;48.466;7.950;2023-03-31T19:13:50;10.70;1.00
1137;DHT22;557;48.466;7.950;2023-03-31T19:16:40;10.70;1.00
1137;DHT22;557;48.466;7.950;2023-03-31T19:19:29;10.70;1.00
1137;DHT22;557;48.466;7.950;2023-03-31T19:22:18;10.60;35.40
1137;DHT22;557;48.466;7.950;2023-03-31T19:25:07;10.40;99.90
1137;DHT22;557;48.466;7.950;2023-03-31T19:27:54;10.20;99.90
1137;DHT22;557;48.466;7.950;2023-03-31T19:30:41;10.10;99.90